sensor_id;sensor_type;location;lat;lon;timestamp;temperature;humidity
57636;DHT22;43465;50.728;4.160;2022-07-05T00:01:43;17.90;93.60
57636;DHT22;43465;50.728;4.160;2022-07-05T00:04:09;17.90;93.70
57636;DHT22;43465;50.728;4.160;2022-07-05T00:06:35;17.90;93.70
57636;DHT22;43465;50.728;4.160;2022-07-05T00:09:00;17.70;94.00
57636;DHT22;43465;50.728;4.160;2022-07-05T00:11:26;17.70;94.30
57636;DHT22;43465;50.728;4.160;2022-07-05T00:13:51;17.50;94.50
57636;DHT22;43465;50.728;4.160;2022-07-05T00:16:17;17.50;94.60
57636;DHT22;43465;50.728;4.160;2022-07-05T00:18:43;17.40;94.80
57636;DHT22;43465;50.728;4.160;2022-07-05T00:21:08;17.40;94.80
57636;DHT22;43465;50.728;4.160;2022-07-05T00:23:34;17.30;94.90
57636;DHT22;43465;50.728;4.160;2022-07-05T00:26:00;17.30;95.00
57636;DHT22;43465;50.728;4.160;2022-07-05T00:28:25;17.20;95.30
57636;DHT22;43465;50.728;4.160;2022-07-05T00:30:51;17.10;95.40
57636;DHT22;43465;50.728;4.160;2022-07-05T00:33:17;17.00;95.70
57636;DHT22;43465;50.728;4.160;2022-07-05T00:35:42;16.90;96.00
57636;DHT22;43465;50.728;4.160;2022-07-05T00:38:08;16.80;96.40
57636;DHT22;43465;50.728;4.160;2022-07-05T00:40:34;16.80;96.80
57636;DHT22;43465;50.728;4.160;2022-07-05T00:42:59;16.70;96.80
57636;DHT22;43465;50.728;4.160;2022-07-05T00:45:25;16.60;97.00
57636;DHT22;43465;50.728;4.160;2022-07-05T00:47:51;16.60;97.30
57636;DHT22;43465;50.728;4.160;2022-07-05T00:50:16;16.60;97.40
57636;DHT22;43465;50.728;4.160;2022-07-05T00:52:42;16.50;97.40
57636;DHT22;43465;50.728;4.160;2022-07-05T00:55:08;16.40;97.70
57636;DHT22;43465;50.728;4.160;2022-07-05T00:57:34;16.40;98.40
57636;DHT22;43465;50.728;4.160;2022-07-05T01:00:00;16.30;99.00
57636;DHT22;43465;50.728;4.160;2022-07-05T01:02:25;16.20;99.30
57636;DHT22;43465;50.728;4.160;2022-07-05T01:04:51;16.30;99.40
57636;DHT22;43465;50.728;4.160;2022-07-05T01:07:19;16.40;99.30
57636;DHT22;43465;50.728;4.160;2022-07-05T01:09:45;16.30;99.70
57636;DHT22;43465;50.728;4.160;2022-07-05T01:12:11;16.30;99.90
57636;DHT22;43465;50.728;4.160;2022-07-05T01:14:37;16.20;99.90
57636;DHT22;43465;50.728;4.160;2022-07-05T01:17:03;16.10;99.90
57636;DHT22;43465;50.728;4.160;2022-07-05T01:19:28;16.00;99.90
57636;DHT22;43465;50.728;4.160;2022-07-05T01:21:54;15.90;99.90
57636;DHT22;43465;50.728;4.160;2022-07-05T01:24:20;15.80;99.90
57636;DHT22;43465;50.728;4.160;2022-07-05T01:26:48;15.90;99.90
57636;DHT22;43465;50.728;4.160;2022-07-05T01:29:15;15.80;99.90
57636;DHT22;43465;50.728;4.160;2022-07-05T01:31:41;15.80;99.90
57636;DHT22;43465;50.728;4.160;2022-07-05T01:34:07;15.80;99.90
57636;DHT22;43465;50.728;4.160;2022-07-05T01:36:34;15.80;99.90
57636;DHT22;43465;50.728;4.160;2022-07-05T01:39:04;15.90;99.90
57636;DHT22;43465;50.728;4.160;2022-07-05T01:41:30;15.90;99.90
57636;DHT22;43465;50.728;4.160;2022-07-05T01:43:56;15.80;99.90
57636;DHT22;43465;50.728;4.160;2022-07-05T01:46:22;15.70;99.90
57636;DHT22;43465;50.728;4.160;2022-07-05T01:48:52;15.60;99.90
57636;DHT22;43465;50.728;4.160;2022-07-05T01:51:28;15.50;99.90
57636;DHT22;43465;50.728;4.160;2022-07-05T01:53:55;15.50;99.90
57636;DHT22;43465;50.728;4.160;2022-07-05T01:56:20;15.40;99.90
57636;DHT22;43465;50.728;4.160;2022-07-05T01:58:46;15.30;99.90
57636;DHT22;43465;50.728;4.160;2022-07-05T02:01:12;15.30;99.90
57636;DHT22;43465;50.728;4.160;2022-07-05T02:03:39;15.30;99.90
57636;DHT22;43465;50.728;4.160;2022-07-05T02:06:05;15.50;99.90
57636;DHT22;43465;50.728;4.160;2022-07-05T02:08:33;15.50;99.90
57636;DHT22;43465;50.728;4.160;2022-07-05T02:10:58;15.60;99.90
57636;DHT22;43465;50.728;4.160;2022-07-05T02:13:24;15.80;99.90
57636;DHT22;43465;50.728;4.160;2022-07-05T02:15:50;15.80;99.90
57636;DHT22;43465;50.728;4.160;2022-07-05T02:18:16;15.90;99.90
57636;DHT22;43465;50.728;4.160;2022-07-05T02:20:41;16.00;99.90
57636;DHT22;43465;50.728;4.160;2022-07-05T02:23:08;16.00;99.90
57636;DHT22;43465;50.728;4.160;2022-07-05T02:25:34;16.00;99.90
57636;DHT22;43465;50.728;4.160;2022-07-05T02:28:00;16.00;99.90
57636;DHT22;43465;50.728;4.160;2022-07-05T02:30:25;16.00;99.90
57636;DHT22;43465;50.728;4.160;2022-07-05T02:32:51;16.10;99.90
57636;DHT22;43465;50.728;4.160;2022-07-05T02:35:17;16.00;99.90
57636;DHT22;43465;50.728;4.160;2022-07-05T02:37:43;16.00;99.90
57636;DHT22;43465;50.728;4.160;2022-07-05T02:40:11;16.00;99.90
57636;DHT22;43465;50.728;4.160;2022-07-05T02:42:37;16.00;99.90
57636;DHT22;43465;50.728;4.160;2022-07-05T02:45:04;16.00;99.90
57636;DHT22;43465;50.728;4.160;2022-07-05T02:47:33;16.00;99.90
57636;DHT22;43465;50.728;4.160;2022-07-05T02:50:03;15.90;99.90
57636;DHT22;43465;50.728;4.160;2022-07-05T02:52:29;15.90;99.90
57636;DHT22;43465;50.728;4.160;2022-07-05T02:54:55;15.90;99.90
57636;DHT22;43465;50.728;4.160;2022-07-05T02:57:20;15.80;99.90
57636;DHT22;43465;50.728;4.160;2022-07-05T02:59:46;15.80;99.90
57636;DHT22;43465;50.728;4.160;2022-07-05T03:02:12;15.70;99.90
57636;DHT22;43465;50.728;4.160;2022-07-05T03:04:38;15.70;99.90
57636;DHT22;43465;50.728;4.160;2022-07-05T03:07:03;15.60;99.90
57636;DHT22;43465;50.728;4.160;2022-07-05T03:09:29;15.60;99.90
57636;DHT22;43465;50.728;4.160;2022-07-05T03:11:55;15.60;99.90
57636;DHT22;43465;50.728;4.160;2022-07-05T03:14:20;15.60;99.90
57636;DHT22;43465;50.728;4.160;2022-07-05T03:16:46;15.60;99.90
57636;DHT22;43465;50.728;4.160;2022-07-05T03:19:12;15.60;99.90
57636;DHT22;43465;50.728;4.160;2022-07-05T03:21:37;15.60;99.90
57636;DHT22;43465;50.728;4.160;2022-07-05T03:24:03;15.60;99.90
57636;DHT22;43465;50.728;4.160;2022-07-05T03:26:29;15.60;99.90
57636;DHT22;43465;50.728;4.160;2022-07-05T03:28:54;15.60;99.90
57636;DHT22;43465;50.728;4.160;2022-07-05T03:31:20;15.50;99.90
57636;DHT22;43465;50.728;4.160;2022-07-05T03:33:46;15.60;99.90
57636;DHT22;43465;50.728;4.160;2022-07-05T03:36:11;15.60;99.90
57636;DHT22;43465;50.728;4.160;2022-07-05T03:38:37;15.50;99.90
57636;DHT22;43465;50.728;4.160;2022-07-05T03:41:03;15.50;99.90
57636;DHT22;43465;50.728;4.160;2022-07-05T03:43:28;15.50;99.90
57636;DHT22;43465;50.728;4.160;2022-07-05T03:45:54;15.50;99.90
57636;DHT22;43465;50.728;4.160;2022-07-05T03:48:21;15.40;99.90
57636;DHT22;43465;50.728;4.160;2022-07-05T03:50:47;15.40;99.90
57636;DHT22;43465;50.728;4.160;2022-07-05T03:53:12;15.40;99.90
57636;DHT22;43465;50.728;4.160;2022-07-05T03:55:38;15.40;99.90
57636;DHT22;43465;50.728;4.160;2022-07-05T03:58:04;15.40;99.90
57636;DHT22;43465;50.728;4.160;2022-07-05T04:00:30;15.40;99.90
57636;DHT22;43465;50.728;4.160;2022-07-05T04:02:55;15.40;99.90
57636;DHT22;43465;50.728;4.160;2022-07-05T04:05:21;15.30;99.90
57636;DHT22;43465;50.728;4.160;2022-07-05T04:07:51;15.30;99.90
57636;DHT22;43465;50.728;4.160;2022-07-05T04:10:18;15.30;99.90
57636;DHT22;43465;50.728;4.160;2022-07-05T04:12:44;15.30;99.90
57636;DHT22;43465;50.728;4.160;2022-07-05T04:15:10;15.30;99.90
57636;DHT22;43465;50.728;4.160;2022-07-05T04:17:45;15.30;99.90
57636;DHT22;43465;50.728;4.160;2022-07-05T04:20:10;15.30;99.90
57636;DHT22;43465;50.728;4.160;2022-07-05T04:22:36;15.20;99.90
57636;DHT22;43465;50.728;4.160;2022-07-05T04:25:02;15.20;99.90
57636;DHT22;43465;50.728;4.160;2022-07-05T04:27:49;15.30;99.90
57636;DHT22;43465;50.728;4.160;2022-07-05T04:30:16;15.30;99.90
57636;DHT22;43465;50.728;4.160;2022-07-05T04:32:42;15.30;99.90
57636;DHT22;43465;50.728;4.160;2022-07-05T04:35:08;15.30;99.90
57636;DHT22;43465;50.728;4.160;2022-07-05T04:37:34;15.30;99.90
57636;DHT22;43465;50.728;4.160;2022-07-05T04:40:00;15.30;99.90
57636;DHT22;43465;50.728;4.160;2022-07-05T04:42:26;15.40;99.90
57636;DHT22;43465;50.728;4.160;2022-07-05T04:44:52;15.40;99.90
57636;DHT22;43465;50.728;4.160;2022-07-05T04:47:17;15.40;99.90
57636;DHT22;43465;50.728;4.160;2022-07-05T04:49:43;15.50;99.90
57636;DHT22;43465;50.728;4.160;2022-07-05T04:52:09;15.50;99.90
57636;DHT22;43465;50.728;4.160;2022-07-05T04:54:35;15.50;99.90
57636;DHT22;43465;50.728;4.160;2022-07-05T04:57:01;15.60;99.90
57636;DHT22;43465;50.728;4.160;2022-07-05T04:59:27;15.70;99.90
57636;DHT22;43465;50.728;4.160;2022-07-05T05:01:52;15.70;99.90
57636;DHT22;43465;50.728;4.160;2022-07-05T05:04:18;15.80;99.90
57636;DHT22;43465;50.728;4.160;2022-07-05T05:06:44;15.90;99.90
57636;DHT22;43465;50.728;4.160;2022-07-05T05:09:09;15.90;99.90
57636;DHT22;43465;50.728;4.160;2022-07-05T05:11:35;16.00;99.90
57636;DHT22;43465;50.728;4.160;2022-07-05T05:14:00;16.00;99.90
57636;DHT22;43465;50.728;4.160;2022-07-05T05:16:26;16.10;99.90
57636;DHT22;43465;50.728;4.160;2022-07-05T05:18:52;16.10;99.90
57636;DHT22;43465;50.728;4.160;2022-07-05T05:21:17;16.20;99.90
57636;DHT22;43465;50.728;4.160;2022-07-05T05:23:43;16.20;99.90
57636;DHT22;43465;50.728;4.160;2022-07-05T05:26:09;16.20;99.90
57636;DHT22;43465;50.728;4.160;2022-07-05T05:28:34;16.30;99.90
57636;DHT22;43465;50.728;4.160;2022-07-05T05:31:00;16.30;99.90
57636;DHT22;43465;50.728;4.160;2022-07-05T05:33:26;16.40;99.90
57636;DHT22;43465;50.728;4.160;2022-07-05T05:35:52;16.40;99.90
57636;DHT22;43465;50.728;4.160;2022-07-05T05:38:17;16.40;99.90
57636;DHT22;43465;50.728;4.160;2022-07-05T05:40:43;16.50;99.90
57636;DHT22;43465;50.728;4.160;2022-07-05T05:43:10;16.60;99.90
57636;DHT22;43465;50.728;4.160;2022-07-05T05:45:36;16.70;99.90
57636;DHT22;43465;50.728;4.160;2022-07-05T05:48:02;16.80;99.90
57636;DHT22;43465;50.728;4.160;2022-07-05T05:50:30;16.80;99.90
57636;DHT22;43465;50.728;4.160;2022-07-05T05:52:56;16.90;99.90
57636;DHT22;43465;50.728;4.160;2022-07-05T05:55:24;17.00;99.90
57636;DHT22;43465;50.728;4.160;2022-07-05T05:57:50;17.00;99.90
57636;DHT22;43465;50.728;4.160;2022-07-05T06:00:17;17.10;99.90
57636;DHT22;43465;50.728;4.160;2022-07-05T06:02:44;17.20;99.90
57636;DHT22;43465;50.728;4.160;2022-07-05T06:05:10;17.30;99.90
57636;DHT22;43465;50.728;4.160;2022-07-05T06:07:53;17.30;99.90
57636;DHT22;43465;50.728;4.160;2022-07-05T06:10:25;17.50;99.90
57636;DHT22;43465;50.728;4.160;2022-07-05T06:12:53;17.50;99.90
57636;DHT22;43465;50.728;4.160;2022-07-05T06:15:20;17.60;99.90
57636;DHT22;43465;50.728;4.160;2022-07-05T06:17:46;17.70;99.90
57636;DHT22;43465;50.728;4.160;2022-07-05T06:20:14;17.70;99.90
57636;DHT22;43465;50.728;4.160;2022-07-05T06:22:40;17.80;99.90
57636;DHT22;43465;50.728;4.160;2022-07-05T06:25:07;17.90;99.90
57636;DHT22;43465;50.728;4.160;2022-07-05T06:27:48;18.00;99.90
57636;DHT22;43465;50.728;4.160;2022-07-05T06:30:16;18.00;99.90
57636;DHT22;43465;50.728;4.160;2022-07-05T06:32:43;18.10;99.90
57636;DHT22;43465;50.728;4.160;2022-07-05T06:35:09;18.20;99.90
57636;DHT22;43465;50.728;4.160;2022-07-05T06:38:01;18.30;99.90
57636;DHT22;43465;50.728;4.160;2022-07-05T06:40:32;18.40;99.90
57636;DHT22;43465;50.728;4.160;2022-07-05T06:43:02;18.50;99.90
57636;DHT22;43465;50.728;4.160;2022-07-05T06:45:28;18.60;99.90
57636;DHT22;43465;50.728;4.160;2022-07-05T06:48:10;18.60;99.90
57636;DHT22;43465;50.728;4.160;2022-07-05T06:50:38;18.70;99.90
57636;DHT22;43465;50.728;4.160;2022-07-05T06:53:05;18.70;99.90
57636;DHT22;43465;50.728;4.160;2022-07-05T06:55:31;18.80;99.90
57636;DHT22;43465;50.728;4.160;2022-07-05T06:58:02;18.90;99.90
57636;DHT22;43465;50.728;4.160;2022-07-05T07:00:29;18.90;99.90
57636;DHT22;43465;50.728;4.160;2022-07-05T07:02:54;18.90;99.90
57636;DHT22;43465;50.728;4.160;2022-07-05T07:05:20;19.00;99.90
57636;DHT22;43465;50.728;4.160;2022-07-05T07:07:46;19.10;99.90
57636;DHT22;43465;50.728;4.160;2022-07-05T07:10:31;19.20;99.90
57636;DHT22;43465;50.728;4.160;2022-07-05T07:12:57;19.30;99.90
57636;DHT22;43465;50.728;4.160;2022-07-05T07:15:24;19.30;99.90
57636;DHT22;43465;50.728;4.160;2022-07-05T07:17:50;19.30;99.90
57636;DHT22;43465;50.728;4.160;2022-07-05T07:20:15;19.40;99.90
57636;DHT22;43465;50.728;4.160;2022-07-05T07:22:41;19.60;99.90
57636;DHT22;43465;50.728;4.160;2022-07-05T07:25:07;19.80;99.90
57636;DHT22;43465;50.728;4.160;2022-07-05T07:27:43;20.10;99.30
57636;DHT22;43465;50.728;4.160;2022-07-05T07:30:20;20.20;99.20
57636;DHT22;43465;50.728;4.160;2022-07-05T07:32:46;20.20;99.30
57636;DHT22;43465;50.728;4.160;2022-07-05T07:35:12;20.30;98.80
57636;DHT22;43465;50.728;4.160;2022-07-05T07:37:38;20.30;98.50
57636;DHT22;43465;50.728;4.160;2022-07-05T07:40:05;20.20;99.40
57636;DHT22;43465;50.728;4.160;2022-07-05T07:42:30;20.40;99.20
57636;DHT22;43465;50.728;4.160;2022-07-05T07:44:56;20.60;98.90
57636;DHT22;43465;50.728;4.160;2022-07-05T07:47:22;20.50;98.70
57636;DHT22;43465;50.728;4.160;2022-07-05T07:49:48;20.70;98.70
57636;DHT22;43465;50.728;4.160;2022-07-05T07:52:14;20.80;98.00
57636;DHT22;43465;50.728;4.160;2022-07-05T07:54:40;20.90;99.00
57636;DHT22;43465;50.728;4.160;2022-07-05T07:57:06;21.10;97.60
57636;DHT22;43465;50.728;4.160;2022-07-05T07:59:32;21.10;97.50
57636;DHT22;43465;50.728;4.160;2022-07-05T08:01:58;21.30;97.70
57636;DHT22;43465;50.728;4.160;2022-07-05T08:04:23;21.50;97.10
57636;DHT22;43465;50.728;4.160;2022-07-05T08:06:49;21.40;96.70
57636;DHT22;43465;50.728;4.160;2022-07-05T08:09:15;21.40;97.00
57636;DHT22;43465;50.728;4.160;2022-07-05T08:11:40;21.30;96.20
57636;DHT22;43465;50.728;4.160;2022-07-05T08:14:06;21.30;97.00
57636;DHT22;43465;50.728;4.160;2022-07-05T08:16:32;21.40;97.60
57636;DHT22;43465;50.728;4.160;2022-07-05T08:18:58;21.50;97.00
57636;DHT22;43465;50.728;4.160;2022-07-05T08:21:42;21.60;97.60
57636;DHT22;43465;50.728;4.160;2022-07-05T08:24:12;21.80;96.30
57636;DHT22;43465;50.728;4.160;2022-07-05T08:26:38;22.00;96.30
57636;DHT22;43465;50.728;4.160;2022-07-05T08:29:06;22.00;95.80
57636;DHT22;43465;50.728;4.160;2022-07-05T08:31:38;22.10;96.60
57636;DHT22;43465;50.728;4.160;2022-07-05T08:34:04;22.10;96.50
57636;DHT22;43465;50.728;4.160;2022-07-05T08:36:30;22.10;95.70
57636;DHT22;43465;50.728;4.160;2022-07-05T08:38:56;22.10;95.00
57636;DHT22;43465;50.728;4.160;2022-07-05T08:41:22;22.20;95.80
57636;DHT22;43465;50.728;4.160;2022-07-05T08:43:49;22.30;95.50
57636;DHT22;43465;50.728;4.160;2022-07-05T08:46:17;22.30;95.00
57636;DHT22;43465;50.728;4.160;2022-07-05T08:48:44;22.40;94.90
57636;DHT22;43465;50.728;4.160;2022-07-05T08:51:13;22.50;94.20
57636;DHT22;43465;50.728;4.160;2022-07-05T08:53:40;22.60;95.10
57636;DHT22;43465;50.728;4.160;2022-07-05T08:56:08;22.70;94.80
57636;DHT22;43465;50.728;4.160;2022-07-05T08:58:35;22.80;93.20
57636;DHT22;43465;50.728;4.160;2022-07-05T09:01:01;22.80;94.10
57636;DHT22;43465;50.728;4.160;2022-07-05T09:03:33;22.80;93.80
57636;DHT22;43465;50.728;4.160;2022-07-05T09:06:02;22.90;93.70
57636;DHT22;43465;50.728;4.160;2022-07-05T09:08:30;22.90;93.70
57636;DHT22;43465;50.728;4.160;2022-07-05T09:11:01;23.00;93.60
57636;DHT22;43465;50.728;4.160;2022-07-05T09:13:32;23.10;93.20
57636;DHT22;43465;50.728;4.160;2022-07-05T09:15:58;23.00;92.60
57636;DHT22;43465;50.728;4.160;2022-07-05T09:18:53;23.00;90.30
57636;DHT22;43465;50.728;4.160;2022-07-05T09:21:22;22.80;90.90
57636;DHT22;43465;50.728;4.160;2022-07-05T09:24:02;22.70;91.70
57636;DHT22;43465;50.728;4.160;2022-07-05T09:26:35;22.80;92.20
57636;DHT22;43465;50.728;4.160;2022-07-05T09:29:01;22.80;90.60
57636;DHT22;43465;50.728;4.160;2022-07-05T09:31:32;22.90;91.20
57636;DHT22;43465;50.728;4.160;2022-07-05T09:34:11;23.00;92.00
57636;DHT22;43465;50.728;4.160;2022-07-05T09:39:35;23.30;91.50
57636;DHT22;43465;50.728;4.160;2022-07-05T09:42:17;23.30;91.10
57636;DHT22;43465;50.728;4.160;2022-07-05T09:44:45;23.50;90.40
57636;DHT22;43465;50.728;4.160;2022-07-05T09:47:14;23.60;88.00
57636;DHT22;43465;50.728;4.160;2022-07-05T09:49:50;23.70;87.50
57636;DHT22;43465;50.728;4.160;2022-07-05T09:55:13;23.40;82.40
57636;DHT22;43465;50.728;4.160;2022-07-05T09:57:42;23.30;89.80
57636;DHT22;43465;50.728;4.160;2022-07-05T10:00:11;23.30;90.40
57636;DHT22;43465;50.728;4.160;2022-07-05T10:02:41;23.40;87.40
57636;DHT22;43465;50.728;4.160;2022-07-05T10:07:39;23.60;87.60
57636;DHT22;43465;50.728;4.160;2022-07-05T10:10:07;23.80;90.50
57636;DHT22;43465;50.728;4.160;2022-07-05T10:12:35;24.10;88.90
57636;DHT22;43465;50.728;4.160;2022-07-05T10:15:02;24.20;88.60
57636;DHT22;43465;50.728;4.160;2022-07-05T10:17:29;24.50;90.50
57636;DHT22;43465;50.728;4.160;2022-07-05T10:20:04;24.60;85.50
57636;DHT22;43465;50.728;4.160;2022-07-05T10:22:31;24.80;88.10
57636;DHT22;43465;50.728;4.160;2022-07-05T10:25:00;24.90;83.40
57636;DHT22;43465;50.728;4.160;2022-07-05T10:27:27;24.90;83.00
57636;DHT22;43465;50.728;4.160;2022-07-05T10:29:56;25.00;82.60
57636;DHT22;43465;50.728;4.160;2022-07-05T10:32:23;25.00;83.80
57636;DHT22;43465;50.728;4.160;2022-07-05T10:34:51;24.90;81.30
57636;DHT22;43465;50.728;4.160;2022-07-05T10:37:17;24.70;82.10
57636;DHT22;43465;50.728;4.160;2022-07-05T10:39:43;24.80;83.60
57636;DHT22;43465;50.728;4.160;2022-07-05T10:42:09;24.80;81.50
57636;DHT22;43465;50.728;4.160;2022-07-05T10:44:35;24.60;77.80
57636;DHT22;43465;50.728;4.160;2022-07-05T10:47:11;24.40;80.60
57636;DHT22;43465;50.728;4.160;2022-07-05T10:49:37;24.10;79.80
57636;DHT22;43465;50.728;4.160;2022-07-05T10:52:04;23.80;80.80
57636;DHT22;43465;50.728;4.160;2022-07-05T10:54:30;23.60;83.70
57636;DHT22;43465;50.728;4.160;2022-07-05T10:57:24;23.30;85.10
57636;DHT22;43465;50.728;4.160;2022-07-05T11:02:32;23.20;82.30
57636;DHT22;43465;50.728;4.160;2022-07-05T11:04:58;23.20;84.40
57636;DHT22;43465;50.728;4.160;2022-07-05T11:08:02;23.10;87.50
57636;DHT22;43465;50.728;4.160;2022-07-05T11:10:28;23.10;86.70
57636;DHT22;43465;50.728;4.160;2022-07-05T11:12:57;23.30;83.30
57636;DHT22;43465;50.728;4.160;2022-07-05T11:15:22;23.50;90.10
57636;DHT22;43465;50.728;4.160;2022-07-05T11:17:48;23.80;86.70
57636;DHT22;43465;50.728;4.160;2022-07-05T11:20:31;24.10;79.90
57636;DHT22;43465;50.728;4.160;2022-07-05T11:23:06;24.30;81.20
57636;DHT22;43465;50.728;4.160;2022-07-05T11:25:39;24.60;82.30
57636;DHT22;43465;50.728;4.160;2022-07-05T11:28:08;24.80;81.90
57636;DHT22;43465;50.728;4.160;2022-07-05T11:33:38;25.00;76.70
57636;DHT22;43465;50.728;4.160;2022-07-05T11:36:06;25.00;72.40
57636;DHT22;43465;50.728;4.160;2022-07-05T11:38:33;25.00;76.60
57636;DHT22;43465;50.728;4.160;2022-07-05T11:41:14;25.00;74.00
57636;DHT22;43465;50.728;4.160;2022-07-05T11:43:41;24.90;71.20
57636;DHT22;43465;50.728;4.160;2022-07-05T11:46:07;24.60;73.70
57636;DHT22;43465;50.728;4.160;2022-07-05T11:48:33;24.50;77.80
57636;DHT22;43465;50.728;4.160;2022-07-05T11:51:12;24.30;76.10
57636;DHT22;43465;50.728;4.160;2022-07-05T11:53:49;24.10;76.00
57636;DHT22;43465;50.728;4.160;2022-07-05T11:56:22;24.00;80.40
57636;DHT22;43465;50.728;4.160;2022-07-05T11:58:47;24.00;79.60
57636;DHT22;43465;50.728;4.160;2022-07-05T12:01:13;23.90;76.90
57636;DHT22;43465;50.728;4.160;2022-07-05T12:03:39;23.80;77.80
57636;DHT22;43465;50.728;4.160;2022-07-05T12:06:14;23.60;79.10
57636;DHT22;43465;50.728;4.160;2022-07-05T12:08:43;23.60;79.60
57636;DHT22;43465;50.728;4.160;2022-07-05T12:11:12;23.50;79.10
57636;DHT22;43465;50.728;4.160;2022-07-05T12:13:56;23.50;79.70
57636;DHT22;43465;50.728;4.160;2022-07-05T12:16:21;23.50;81.40
57636;DHT22;43465;50.728;4.160;2022-07-05T12:18:54;23.60;82.70
57636;DHT22;43465;50.728;4.160;2022-07-05T12:21:21;23.70;83.70
57636;DHT22;43465;50.728;4.160;2022-07-05T12:23:48;23.70;82.40
57636;DHT22;43465;50.728;4.160;2022-07-05T12:26:15;23.80;82.90
57636;DHT22;43465;50.728;4.160;2022-07-05T12:28:42;23.80;80.00
57636;DHT22;43465;50.728;4.160;2022-07-05T12:31:22;23.70;80.70
57636;DHT22;43465;50.728;4.160;2022-07-05T12:33:49;23.70;82.50
57636;DHT22;43465;50.728;4.160;2022-07-05T12:36:17;23.80;84.70
57636;DHT22;43465;50.728;4.160;2022-07-05T12:38:42;24.00;79.60
57636;DHT22;43465;50.728;4.160;2022-07-05T12:41:09;24.20;80.00
57636;DHT22;43465;50.728;4.160;2022-07-05T12:43:52;24.30;81.70
57636;DHT22;43465;50.728;4.160;2022-07-05T12:46:18;24.50;78.20
57636;DHT22;43465;50.728;4.160;2022-07-05T12:48:44;24.50;75.20
57636;DHT22;43465;50.728;4.160;2022-07-05T12:51:11;24.40;77.40
57636;DHT22;43465;50.728;4.160;2022-07-05T12:53:47;24.10;77.00
57636;DHT22;43465;50.728;4.160;2022-07-05T12:56:32;23.90;76.60
57636;DHT22;43465;50.728;4.160;2022-07-05T12:59:16;23.70;78.70
57636;DHT22;43465;50.728;4.160;2022-07-05T13:01:43;23.60;80.00
57636;DHT22;43465;50.728;4.160;2022-07-05T13:04:14;23.40;81.10
57636;DHT22;43465;50.728;4.160;2022-07-05T13:09:14;23.50;80.60
57636;DHT22;43465;50.728;4.160;2022-07-05T13:11:41;23.60;81.20
57636;DHT22;43465;50.728;4.160;2022-07-05T13:14:07;23.80;81.70
57636;DHT22;43465;50.728;4.160;2022-07-05T13:16:32;23.90;78.70
57636;DHT22;43465;50.728;4.160;2022-07-05T13:19:11;23.90;78.00
57636;DHT22;43465;50.728;4.160;2022-07-05T13:21:38;23.90;78.90
57636;DHT22;43465;50.728;4.160;2022-07-05T13:24:04;23.70;79.80
57636;DHT22;43465;50.728;4.160;2022-07-05T13:26:30;23.40;79.60
57636;DHT22;43465;50.728;4.160;2022-07-05T13:28:56;23.30;81.50
57636;DHT22;43465;50.728;4.160;2022-07-05T13:31:22;23.40;84.60
57636;DHT22;43465;50.728;4.160;2022-07-05T13:33:47;23.60;84.00
57636;DHT22;43465;50.728;4.160;2022-07-05T13:36:13;23.70;79.90
57636;DHT22;43465;50.728;4.160;2022-07-05T13:38:38;23.70;80.60
57636;DHT22;43465;50.728;4.160;2022-07-05T13:41:04;23.80;78.70
57636;DHT22;43465;50.728;4.160;2022-07-05T13:43:30;23.70;80.40
57636;DHT22;43465;50.728;4.160;2022-07-05T13:45:55;23.70;79.70
57636;DHT22;43465;50.728;4.160;2022-07-05T13:48:21;23.90;81.10
57636;DHT22;43465;50.728;4.160;2022-07-05T13:50:46;24.00;79.50
57636;DHT22;43465;50.728;4.160;2022-07-05T13:53:12;24.00;78.70
57636;DHT22;43465;50.728;4.160;2022-07-05T13:55:37;23.90;79.70
57636;DHT22;43465;50.728;4.160;2022-07-05T13:58:03;23.90;79.60
57636;DHT22;43465;50.728;4.160;2022-07-05T14:00:29;23.80;78.20
57636;DHT22;43465;50.728;4.160;2022-07-05T14:02:54;23.90;79.80
57636;DHT22;43465;50.728;4.160;2022-07-05T14:05:20;23.70;77.20
57636;DHT22;43465;50.728;4.160;2022-07-05T14:07:47;23.70;77.00
57636;DHT22;43465;50.728;4.160;2022-07-05T14:10:14;23.60;79.20
57636;DHT22;43465;50.728;4.160;2022-07-05T14:12:40;23.80;79.50
57636;DHT22;43465;50.728;4.160;2022-07-05T14:15:06;23.90;75.70
57636;DHT22;43465;50.728;4.160;2022-07-05T14:17:32;24.10;76.90
57636;DHT22;43465;50.728;4.160;2022-07-05T14:19:58;24.30;75.80
57636;DHT22;43465;50.728;4.160;2022-07-05T14:22:24;24.20;75.60
57636;DHT22;43465;50.728;4.160;2022-07-05T14:24:50;24.20;75.80
57636;DHT22;43465;50.728;4.160;2022-07-05T14:27:16;24.00;74.00
57636;DHT22;43465;50.728;4.160;2022-07-05T14:29:42;24.00;76.00
57636;DHT22;43465;50.728;4.160;2022-07-05T14:32:08;24.00;74.90
57636;DHT22;43465;50.728;4.160;2022-07-05T14:34:33;23.80;75.70
57636;DHT22;43465;50.728;4.160;2022-07-05T14:36:59;23.50;76.80
57636;DHT22;43465;50.728;4.160;2022-07-05T14:39:25;23.70;75.30
57636;DHT22;43465;50.728;4.160;2022-07-05T14:41:51;24.20;75.00
57636;DHT22;43465;50.728;4.160;2022-07-05T14:44:17;25.30;73.80
57636;DHT22;43465;50.728;4.160;2022-07-05T14:46:42;25.60;71.80
57636;DHT22;43465;50.728;4.160;2022-07-05T14:49:08;25.60;71.90
57636;DHT22;43465;50.728;4.160;2022-07-05T14:51:34;25.40;71.30
57636;DHT22;43465;50.728;4.160;2022-07-05T14:54:00;25.80;71.60
57636;DHT22;43465;50.728;4.160;2022-07-05T14:56:25;25.80;69.20
57636;DHT22;43465;50.728;4.160;2022-07-05T14:58:51;25.30;69.80
57636;DHT22;43465;50.728;4.160;2022-07-05T15:01:17;24.90;72.20
57636;DHT22;43465;50.728;4.160;2022-07-05T15:03:45;24.50;72.10
57636;DHT22;43465;50.728;4.160;2022-07-05T15:06:11;24.40;72.90
57636;DHT22;43465;50.728;4.160;2022-07-05T15:08:37;24.00;73.80
57636;DHT22;43465;50.728;4.160;2022-07-05T15:11:03;23.70;73.60
57636;DHT22;43465;50.728;4.160;2022-07-05T15:13:30;23.40;75.00
57636;DHT22;43465;50.728;4.160;2022-07-05T15:15:56;23.20;75.80
57636;DHT22;43465;50.728;4.160;2022-07-05T15:18:23;23.10;77.20
57636;DHT22;43465;50.728;4.160;2022-07-05T15:20:49;23.00;76.40
57636;DHT22;43465;50.728;4.160;2022-07-05T15:23:17;22.80;75.80
57636;DHT22;43465;50.728;4.160;2022-07-05T15:25:42;22.60;76.40
57636;DHT22;43465;50.728;4.160;2022-07-05T15:28:09;22.60;75.80
57636;DHT22;43465;50.728;4.160;2022-07-05T15:30:36;22.50;76.00
57636;DHT22;43465;50.728;4.160;2022-07-05T15:33:03;22.30;76.50
57636;DHT22;43465;50.728;4.160;2022-07-05T15:35:29;22.10;76.60
57636;DHT22;43465;50.728;4.160;2022-07-05T15:37:54;22.00;76.80
57636;DHT22;43465;50.728;4.160;2022-07-05T15:40:20;22.30;78.10
57636;DHT22;43465;50.728;4.160;2022-07-05T15:42:46;23.20;74.20
57636;DHT22;43465;50.728;4.160;2022-07-05T15:45:11;24.40;72.40
57636;DHT22;43465;50.728;4.160;2022-07-05T15:47:37;25.00;69.90
57636;DHT22;43465;50.728;4.160;2022-07-05T15:50:06;25.60;67.20